Time;durP1;ratioP1;P1;durP2;ratioP2;P2;SDS_P1;SDS_P2;PMS_P1;PMS_P2;Temp;Humidity;BMP_temperature;BMP_pressure;BME280_temperature;BME280_humidity;BME280_pressure;Samples;Min_cycle;Max_cycle;Signal;HPM_P1;HPM_P2
2023/04/23 00:01:27;;;;;;;0.63;0.63;;;16.90;67.80;;;17.04;51.30;94349.78;5074983;28;20190;-39
2023/04/23 00:03:58;;;;;;;0.60;0.60;;;16.80;67.80;;;17.02;50.95;94349.22;5075025;28;20609;-40
2023/04/23 00:06:29;;;;;;;0.60;0.60;;;16.80;68.00;;;16.99;51.35;94349.72;5074596;28;20191;-35
2023/04/23 00:09:00;;;;;;;0.50;0.50;;;16.80;67.90;;;16.97;50.90;94349.16;5075331;28;20189;-38
2023/04/23 00:11:27;;;;;;;0.60;0.60;;;16.70;67.80;;;16.95;51.64;94346.75;5075158;28;20179;-37
2023/04/23 00:13:55;;;;;;;0.50;0.50;;;16.70;67.70;;;16.93;51.16;94353.31;5074992;28;20191;-38
2023/04/23 00:16:23;;;;;;;0.50;0.50;;;16.70;67.90;;;16.92;51.18;94351.75;5075505;28;20198;-37
2023/04/23 00:18:50;;;;;;;0.60;0.60;;;16.70;68.00;;;16.91;51.23;94355.41;5074962;28;20190;-40
2023/04/23 00:21:17;;;;;;;0.60;0.60;;;16.70;67.90;;;16.89;51.65;94352.19;5074909;28;20189;-38
2023/04/23 00:23:45;;;;;;;0.50;0.50;;;16.70;69.00;;;16.87;51.27;94352.44;5074834;28;20248;-39
2023/04/23 00:26:12;;;;;;;0.50;0.50;;;16.60;68.00;;;16.85;51.31;94349.22;5074953;28;20570;-35
2023/04/23 00:28:39;;;;;;;0.50;0.50;;;16.60;68.00;;;16.85;51.85;94356.38;5074804;28;20531;-36
2023/04/23 00:31:06;;;;;;;0.70;0.70;;;16.70;68.00;;;16.81;51.16;94346.25;5075050;28;20293;-38
2023/04/23 00:33:34;;;;;;;0.60;0.60;;;16.60;67.90;;;16.80;51.36;94343.88;5074705;28;20317;-39
2023/04/23 00:36:01;;;;;;;0.60;0.60;;;16.60;68.00;;;16.77;51.67;94341.69;5074002;28;20210;-35
2023/04/23 00:38:28;;;;;;;0.52;0.52;;;16.60;67.90;;;16.76;51.28;94343.56;5075017;28;20707;-35
2023/04/23 00:40:55;;;;;;;0.55;0.55;;;16.60;68.00;;;16.76;51.75;94340.09;5074802;28;20186;-38
2023/04/23 00:43:23;;;;;;;0.60;0.60;;;16.50;68.10;;;16.75;51.96;94335.88;5073748;28;20205;-40
2023/04/23 00:45:50;;;;;;;0.57;0.57;;;16.60;68.00;;;16.73;51.19;94337.94;5078730;28;20222;-40
2023/04/23 00:48:17;;;;;;;0.50;0.50;;;16.50;67.90;;;16.72;51.32;94339.81;5094638;28;20219;-37
2023/04/23 00:50:45;;;;;;;0.70;0.70;;;16.50;68.00;;;16.69;51.80;94342.13;5078461;28;20189;-34
2023/04/23 00:53:12;;;;;;;0.50;0.50;;;16.50;69.00;;;16.67;51.72;94334.41;5078883;28;20191;-35
2023/04/23 00:55:40;;;;;;;0.60;0.60;;;16.50;68.10;;;16.68;51.82;94332.59;5078748;28;20191;-40
2023/04/23 00:58:07;;;;;;;0.50;0.50;;;16.50;68.10;;;16.67;51.91;94337.06;5111477;28;20282;-35
2023/04/23 01:00:45;;;;;;;0.70;0.70;;;16.50;68.10;;;16.64;51.58;94332.28;5110784;28;20701;-36
2023/04/23 01:03:12;;;;;;;0.60;0.60;;;16.50;68.30;;;16.62;51.87;94332.53;5078714;28;20291;-35
2023/04/23 01:05:41;;;;;;;0.70;0.70;;;16.40;68.20;;;16.60;51.66;94331.13;5078529;28;20230;-40
2023/04/23 01:08:14;;;;;;;0.60;0.60;;;16.40;68.20;;;16.59;51.63;94338.28;5111084;28;20183;-38
2023/04/23 01:10:45;;;;;;;0.50;0.50;;;16.40;68.40;;;16.58;52.02;94336.69;5077294;28;20183;-38
2023/04/23 01:13:15;;;;;;;0.60;0.60;;;16.40;68.30;;;16.57;52.03;94331.63;5078448;28;20203;-40
2023/04/23 01:15:44;;;;;;;0.60;0.60;;;16.40;68.30;;;16.55;52.17;94333.72;5094339;28;20183;-40
2023/04/23 01:18:12;;;;;;;0.60;0.60;;;16.40;68.30;;;16.53;51.82;94327.84;5077248;28;20662;-40
2023/04/23 01:20:40;;;;;;;0.50;0.50;;;16.30;68.10;;;16.51;51.81;94332.63;5077979;28;20213;-38
2023/04/23 01:23:07;;;;;;;0.60;0.60;;;16.30;68.10;;;16.49;52.17;94330.22;5078032;28;20195;-35
2023/04/23 01:25:34;;;;;;;0.60;0.60;;;16.30;68.30;;;16.48;52.28;94329.41;5110403;28;20267;-39
2023/04/23 01:28:02;;;;;;;0.70;0.70;;;16.40;68.30;;;16.47;51.87;94335.72;5078218;28;20301;-37
2023/04/23 01:30:30;;;;;;;0.65;0.65;;;16.30;68.20;;;16.46;51.65;94341.28;5078659;28;20195;-40
2023/04/23 01:32:58;;;;;;;0.50;0.50;;;16.30;68.30;;;16.44;52.37;94335.41;5077493;28;20284;-38
2023/04/23 01:35:25;;;;;;;0.65;0.65;;;16.30;68.40;;;16.42;52.06;94337.53;5077801;28;20194;-35
2023/04/23 01:37:54;;;;;;;0.52;0.52;;;16.30;68.20;;;16.42;52.45;94334.88;5077728;28;20198;-38
2023/04/23 01:40:21;;;;;;;0.60;0.60;;;16.30;68.40;;;16.39;51.98;94330.84;5110326;28;20198;-35
2023/04/23 01:42:49;;;;;;;0.60;0.60;;;16.20;68.30;;;16.39;52.27;94340.66;5093452;28;20198;-38
2023/04/23 01:45:19;;;;;;;0.45;0.45;;;16.20;68.20;;;16.38;52.27;94336.38;5077810;28;20206;-35
2023/04/23 01:47:46;;;;;;;0.63;0.63;;;16.20;68.30;;;16.36;51.99;94333.19;5077620;28;20244;-40
2023/04/23 01:50:14;;;;;;;0.60;0.60;;;16.20;69.30;;;16.35;52.14;94335.03;5110581;28;20191;-38
2023/04/23 01:52:43;;;;;;;0.60;0.60;;;16.20;68.40;;;16.33;52.36;94332.63;5092995;28;20195;-40
2023/04/23 01:55:10;;;;;;;0.50;0.50;;;16.20;68.40;;;16.31;52.31;94334.72;5076967;28;20201;-39
2023/04/23 01:57:37;;;;;;;0.50;0.50;;;16.20;68.40;;;16.30;52.06;94341.03;5093357;28;20222;-38
2023/04/23 02:00:12;;;;;;;0.52;0.52;;;16.20;68.40;;;16.29;52.58;94339.44;5076395;28;20203;-40
2023/04/23 02:02:41;;;;;;;0.60;0.60;;;16.20;68.60;;;16.28;52.02;94342.31;5093148;28;20193;-40
2023/04/23 02:05:17;;;;;;;0.57;0.57;;;16.20;69.40;;;16.26;52.11;94337.28;5110101;28;20280;-35
2023/04/23 02:07:49;;;;;;;0.57;0.57;;;16.20;68.50;;;16.23;52.23;94335.09;5093156;28;20194;-37
2023/04/23 02:10:17;;;;;;;0.50;0.50;;;16.20;68.50;;;16.23;52.39;94331.69;5093131;28;20248;-39
2023/04/23 02:12:44;;;;;;;0.55;0.55;;;16.20;68.50;;;16.22;52.50;94341.47;5076208;28;20187;-40
2023/04/23 02:15:13;;;;;;;0.40;0.40;;;16.10;68.40;;;16.22;52.03;94338.00;5077060;28;20201;-36
2023/04/23 02:17:40;;;;;;;0.50;0.50;;;16.10;68.40;;;16.21;52.30;94336.41;5092861;28;20198;-40
2023/04/23 02:20:09;;;;;;;0.60;0.60;;;16.10;68.50;;;16.19;52.18;94341.94;5093003;28;20194;-40
2023/04/23 02:22:39;;;;;;;0.47;0.47;;;16.10;68.50;;;16.16;52.70;94342.41;5076723;28;20234;-38
2023/04/23 02:25:07;;;;;;;0.50;0.50;;;16.00;68.40;;;16.15;52.61;94338.19;5077147;28;20233;-38
2023/04/23 02:27:34;;;;;;;0.60;0.60;;;16.10;68.60;;;16.13;52.47;94337.63;5076836;28;20190;-40
2023/04/23 02:30:02;;;;;;;0.60;0.60;;;16.00;68.40;;;16.13;52.25;94340.25;5092727;28;20293;-39
2023/04/23 02:32:29;;;;;;;0.60;0.60;;;16.00;68.40;;;16.10;52.54;94338.91;5076405;28;20214;-39
2023/04/23 02:34:58;;;;;;;0.60;0.60;;;16.00;68.40;;;16.09;52.23;94337.28;5076997;28;20181;-40
2023/04/23 02:37:26;;;;;;;0.60;0.60;;;16.00;68.40;;;16.08;52.20;94335.69;5075674;28;20656;-39
2023/04/23 02:39:53;;;;;;;0.50;0.50;;;16.00;68.50;;;16.08;52.25;94340.19;5109116;28;20209;-40
2023/04/23 02:42:20;;;;;;;0.52;0.52;;;16.00;68.50;;;16.06;52.41;94334.31;5076420;28;20203;-39
2023/04/23 02:44:47;;;;;;;0.60;0.60;;;15.90;68.50;;;16.04;52.69;94331.09;5076410;28;20211;-40
2023/04/23 02:47:14;;;;;;;0.60;0.60;;;16.00;68.50;;;16.03;52.81;94326.84;5075491;28;20205;-38
2023/04/23 02:49:41;;;;;;;0.65;0.65;;;15.90;68.50;;;16.03;52.31;94327.66;5076397;28;20201;-37
2023/04/23 02:52:08;;;;;;;0.80;0.80;;;15.90;68.50;;;16.03;52.28;94332.13;5076547;28;20195;-39
2023/04/23 02:54:36;;;;;;;0.70;0.70;;;15.90;68.60;;;16.01;52.74;94335.03;5076576;28;20195;-38
2023/04/23 02:57:05;;;;;;;0.70;0.70;;;15.90;68.60;;;15.99;52.46;94334.47;5092491;28;20194;-38
2023/04/23 02:59:32;;;;;;;0.60;0.60;;;15.80;68.50;;;15.98;52.99;94325.75;5092119;28;20198;-38
2023/04/23 03:01:59;;;;;;;0.60;0.60;;;15.90;68.70;;;15.96;52.76;94333.09;5092142;28;20203;-38
2023/04/23 03:04:27;;;;;;;0.50;0.50;;;15.90;68.60;;;15.95;52.60;94331.53;5075980;28;20186;-37
2023/04/23 03:06:54;;;;;;;0.60;0.60;;;15.90;68.70;;;15.93;52.52;94330.13;5074283;28;20195;-35
2023/04/23 03:09:21;;;;;;;0.60;0.60;;;15.90;68.60;;;15.93;52.38;94332.78;5075976;28;20199;-35
2023/04/23 03:11:48;;;;;;;0.70;0.70;;;15.80;68.60;;;15.92;52.91;94333.84;5075790;28;20244;-38
2023/04/23 03:14:16;;;;;;;0.50;0.50;;;15.80;68.50;;;15.89;52.74;94329.81;5092068;28;20203;-40
2023/04/23 03:16:43;;;;;;;0.50;0.50;;;15.80;68.50;;;15.90;52.82;94335.91;5074871;28;20202;-35
2023/04/23 03:19:10;;;;;;;0.60;0.60;;;15.80;68.60;;;15.87;52.35;94323.97;5074854;28;20546;-40
2023/04/23 03:21:38;;;;;;;0.50;0.50;;;15.80;68.60;;;15.86;52.70;94327.66;5091505;28;20265;-39
2023/04/23 03:24:07;;;;;;;0.60;0.60;;;15.80;68.80;;;15.86;52.39;94330.31;5091639;28;20207;-40
2023/04/23 03:26:34;;;;;;;0.60;0.60;;;15.80;68.70;;;15.86;52.76;94332.16;5108488;28;20529;-38
2023/04/23 03:29:01;;;;;;;0.50;0.50;;;15.80;68.80;;;15.86;53.17;94334.81;5091523;28;20195;-38
2023/04/23 03:31:28;;;;;;;0.70;0.70;;;15.80;68.70;;;15.83;52.84;94333.41;5075364;28;20606;-38
2023/04/23 03:33:55;;;;;;;0.60;0.60;;;15.80;68.60;;;15.83;52.65;94330.75;5074287;28;20241;-39
2023/04/23 03:36:29;;;;;;;0.50;0.50;;;15.80;68.60;;;15.80;52.69;94329.38;5108800;28;20227;-39
2023/04/23 03:38:56;;;;;;;0.50;0.50;;;15.70;68.60;;;15.80;52.90;94329.38;5075464;28;20202;-40
2023/04/23 03:41:25;;;;;;;0.50;0.50;;;15.70;68.60;;;15.78;52.86;94333.31;5091592;28;20245;-37
2023/04/23 03:43:52;;;;;;;0.60;0.60;;;15.70;68.70;;;15.76;52.92;94320.31;5091175;28;20363;-37
2023/04/23 03:46:34;;;;;;;0.70;0.70;;;15.70;68.70;;;15.75;52.62;94324.00;5075635;28;20206;-40
2023/04/23 03:49:01;;;;;;;0.70;0.70;;;15.70;68.70;;;15.74;53.11;94327.69;5075307;28;20210;-40
2023/04/23 03:51:28;;;;;;;0.50;0.50;;;15.70;68.80;;;15.74;53.03;94326.91;5074311;28;20561;-39
2023/04/23 03:53:55;;;;;;;0.70;0.70;;;15.70;68.80;;;15.73;53.12;94328.72;5075080;28;20195;-37
2023/04/23 03:56:33;;;;;;;0.60;0.60;;;15.70;68.70;;;15.71;52.67;94328.19;5074309;28;20226;-40
2023/04/23 03:59:18;;;;;;;0.57;0.57;;;15.70;68.60;;;15.67;52.95;94327.03;5091126;28;20533;-39
2023/04/23 04:01:47;;;;;;;0.60;0.60;;;15.60;68.70;;;15.66;53.00;94334.16;5074019;28;20194;-38
2023/04/23 04:04:14;;;;;;;0.60;0.60;;;15.60;68.60;;;15.64;53.10;94328.31;5075127;28;20179;-39
2023/04/23 04:06:43;;;;;;;0.70;0.70;;;15.60;68.80;;;15.64;52.81;94328.31;5075034;28;20280;-38
2023/04/23 04:09:10;;;;;;;0.65;0.65;;;15.60;68.70;;;15.64;53.15;94327.53;5075584;28;20496;-38
2023/04/23 04:11:37;;;;;;;0.70;0.70;;;15.60;68.80;;;15.63;53.09;94326.69;5075002;28;20637;-40
2023/04/23 04:14:04;;;;;;;0.60;0.60;;;15.60;68.80;;;15.62;53.08;94322.44;5075107;28;20202;-38
2023/04/23 04:16:31;;;;;;;0.60;0.60;;;15.60;68.80;;;15.62;53.04;94332.25;5075007;28;20198;-40
2023/04/23 04:19:00;;;;;;;0.60;0.60;;;15.60;68.90;;;15.62;52.80;94329.59;5075070;28;20201;-38
2023/04/23 04:21:27;;;;;;;0.60;0.60;;;15.60;68.90;;;15.60;53.16;94329.84;5074910;28;20191;-40
2023/04/23 04:23:55;;;;;;;0.50;0.50;;;15.60;68.90;;;15.61;53.14;94334.09;5091282;28;20187;-40
2023/04/23 04:26:22;;;;;;;0.55;0.55;;;15.50;69.00;;;15.60;53.31;94337.78;5075035;28;20550;-36
2023/04/23 04:28:50;;;;;;;0.60;0.60;;;15.50;69.00;;;15.60;53.47;94342.25;5075087;28;20199;-37
2023/04/23 04:31:19;;;;;;;0.50;0.50;;;15.50;69.00;;;15.59;53.51;94336.16;5075378;28;20274;-40
2023/04/23 04:33:46;;;;;;;0.60;0.60;;;15.60;69.20;;;15.61;53.04;94347.31;5074515;28;20235;-35
2023/04/23 04:36:14;;;;;;;0.80;0.80;;;15.50;69.00;;;15.61;52.95;94355.25;5074757;28;20214;-40
2023/04/23 04:38:40;;;;;;;0.70;0.70;;;15.50;68.80;;;15.59;53.49;94357.31;5075053;28;20198;-39
2023/04/23 04:41:07;;;;;;;0.60;0.60;;;15.50;68.80;;;15.58;53.06;94366.28;5075267;28;20195;-38
2023/04/23 04:43:36;;;;;;;0.50;0.50;;;15.50;68.80;;;15.59;52.92;94365.25;5074518;28;20205;-39
2023/04/23 04:46:04;;;;;;;0.50;0.50;;;15.50;68.90;;;15.59;53.10;94359.16;5106926;28;20216;-37
2023/04/23 04:48:33;;;;;;;0.60;0.60;;;15.50;68.90;;;15.60;53.36;94358.09;5075226;28;20183;-38
2023/04/23 04:51:00;;;;;;;0.40;0.40;;;15.50;69.00;;;15.60;52.97;94358.91;5074630;28;20201;-38
2023/04/23 04:53:27;;;;;;;0.50;0.50;;;15.50;69.10;;;15.62;53.68;94371.88;5107374;28;20203;-38
2023/04/23 04:55:54;;;;;;;0.50;0.50;;;15.50;69.00;;;15.62;53.54;94363.97;5074798;28;20194;-36
2023/04/23 04:58:21;;;;;;;0.60;0.60;;;15.50;69.20;;;15.62;53.16;94364.75;5074568;28;20204;-37
2023/04/23 05:00:50;;;;;;;0.50;0.50;;;15.50;69.30;;;15.64;53.49;94364.53;5073759;28;20194;-36
2023/04/23 05:03:18;;;;;;;0.50;0.50;;;15.60;69.30;;;15.63;53.91;94366.34;5073963;28;20244;-38
2023/04/23 05:05:49;;;;;;;0.50;0.50;;;15.50;69.30;;;15.64;53.64;94367.97;5074311;28;20209;-40
2023/04/23 05:08:17;;;;;;;0.50;0.50;;;15.60;69.40;;;15.64;53.63;94362.69;5074198;28;20202;-35
2023/04/23 05:10:44;;;;;;;0.60;0.60;;;15.60;69.60;;;15.66;53.97;94368.53;5074310;28;20198;-37
2023/04/23 05:13:12;;;;;;;0.60;0.60;;;15.50;69.60;;;15.66;53.90;94373.00;5074205;28;20265;-38
2023/04/23 05:15:39;;;;;;;0.55;0.55;;;15.60;69.60;;;15.67;53.94;94379.91;5065745;28;20214;-38
2023/04/23 05:18:06;;;;;;;0.60;0.60;;;15.60;69.60;;;15.68;53.73;94376.22;5066589;28;20243;-40
2023/04/23 05:20:35;;;;;;;0.60;0.60;;;15.60;69.60;;;15.69;53.67;94383.13;5074058;28;20531;-40
2023/04/23 05:23:02;;;;;;;0.60;0.60;;;15.60;69.60;;;15.69;53.77;94375.97;5074186;28;20619;-37
2023/04/23 05:25:30;;;;;;;0.60;0.60;;;15.60;69.60;;;15.69;54.00;94383.91;5074750;28;20215;-34
2023/04/23 05:27:58;;;;;;;0.60;0.60;;;15.60;69.60;;;15.71;53.93;94378.41;5074379;28;20554;-38
2023/04/23 05:30:25;;;;;;;0.60;0.60;;;15.60;70.40;;;15.73;53.68;94383.47;5069942;28;20191;-33
2023/04/23 05:32:52;;;;;;;0.50;0.50;;;15.70;69.70;;;15.74;54.10;94385.06;5077713;28;20272;-37
2023/04/23 05:35:19;;;;;;;0.60;0.60;;;15.70;69.70;;;15.74;53.77;94385.06;5070359;28;20268;-40
2023/04/23 05:37:46;;;;;;;0.60;0.60;;;15.70;69.70;;;15.74;53.78;94382.41;5064919;28;20207;-40
2023/04/23 05:40:13;;;;;;;0.60;0.60;;;15.70;69.70;;;15.76;54.17;94375.03;5070589;28;20209;-37
2023/04/23 05:42:40;;;;;;;0.60;0.60;;;15.70;69.70;;;15.75;53.80;94376.09;5077514;28;20984;-40
2023/04/23 05:45:08;;;;;;;0.70;0.70;;;15.70;69.70;;;15.76;53.91;94375.03;5077666;28;20206;-37
2023/04/23 05:47:36;;;;;;;0.60;0.60;;;15.70;69.60;;;15.76;53.79;94373.22;5061294;28;20202;-39
2023/04/23 05:50:05;;;;;;;0.60;0.60;;;15.70;69.60;;;15.77;54.27;94368.72;5076848;28;20195;-39
2023/04/23 05:52:35;;;;;;;0.60;0.60;;;15.70;69.70;;;15.77;54.21;94368.72;5077643;28;20526;-38
2023/04/23 05:55:03;;;;;;;0.50;0.50;;;15.70;69.70;;;15.79;53.77;94371.94;5078110;28;20191;-46
2023/04/23 05:57:30;;;;;;;0.52;0.52;;;15.70;69.70;;;15.80;54.23;94370.91;5077974;28;20213;-37
2023/04/23 05:59:57;;;;;;;0.50;0.50;;;15.70;69.60;;;15.80;54.14;94373.53;5057921;28;20518;-34
2023/04/23 06:02:24;;;;;;;0.57;0.57;;;15.70;69.50;;;15.81;53.81;94372.50;5057407;28;20192;-35
2023/04/23 06:04:51;;;;;;;0.70;0.70;;;15.80;69.70;;;15.82;53.91;94377.56;5068578;28;20203;-38
2023/04/23 06:07:19;;;;;;;0.57;0.57;;;15.80;69.70;;;15.83;54.24;94376.53;5077985;28;20214;-39
2023/04/23 06:09:46;;;;;;;0.73;0.73;;;15.90;69.70;;;15.87;54.21;94381.34;5076269;28;20186;-39
2023/04/23 06:12:14;;;;;;;0.70;0.70;;;15.80;69.70;;;15.87;54.38;94376.88;5077240;28;20256;-39
2023/04/23 06:14:41;;;;;;;0.60;0.60;;;15.80;69.70;;;15.90;54.15;94378.22;5076657;28;20195;-37
2023/04/23 06:17:09;;;;;;;0.57;0.57;;;15.90;69.70;;;15.93;53.88;94383.03;5108513;28;20198;-33
2023/04/23 06:19:36;;;;;;;0.60;0.60;;;15.90;69.70;;;15.92;53.97;94379.59;5076922;28;20210;-34
2023/04/23 06:22:04;;;;;;;0.52;0.52;;;15.90;69.70;;;15.94;53.89;94379.34;5109899;28;20205;-36
2023/04/23 06:24:31;;;;;;;0.80;0.80;;;15.90;69.60;;;15.97;54.09;94384.19;5076884;28;20197;-38
2023/04/23 06:26:59;;;;;;;0.57;0.57;;;15.90;69.70;;;15.99;53.91;94380.25;5077081;28;20233;-38
2023/04/23 06:29:26;;;;;;;0.60;0.60;;;16.00;69.80;;;16.02;53.96;94381.59;5092605;28;20194;-35
2023/04/23 06:32:03;;;;;;;0.60;0.60;;;16.00;69.70;;;16.02;53.93;94381.59;5073056;28;20194;-37
2023/04/23 06:34:30;;;;;;;0.63;0.63;;;16.00;69.70;;;16.05;53.91;94381.16;5076540;28;20191;-38
2023/04/23 06:36:58;;;;;;;0.60;0.60;;;16.00;69.70;;;16.07;53.94;94381.69;5076298;28;20275;-34
2023/04/23 06:39:25;;;;;;;0.60;0.60;;;16.00;69.80;;;16.09;54.14;94387.56;5076540;28;20198;-34
2023/04/23 06:41:52;;;;;;;0.60;0.60;;;16.00;69.70;;;16.11;54.34;94376.72;5075218;28;20187;-37
2023/04/23 06:44:47;;;;;;;0.60;0.60;;;16.10;69.70;;;16.13;53.85;94385.22;5079610;28;20199;-32
2023/04/23 06:47:14;;;;;;;0.60;0.60;;;16.10;69.70;;;16.14;53.86;94379.69;5087027;28;20230;-36
2023/04/23 06:49:41;;;;;;;0.60;0.60;;;16.10;69.70;;;16.16;53.89;94374.97;5056421;28;20192;-40
2023/04/23 06:52:08;;;;;;;0.60;0.60;;;16.10;69.70;;;16.19;54.11;94381.63;5072016;28;20196;-37
2023/04/23 06:54:36;;;;;;;0.60;0.60;;;16.10;69.80;;;16.21;54.01;94384.03;5056874;28;20203;-34
2023/04/23 06:57:03;;;;;;;0.50;0.50;;;16.20;70.00;;;16.22;53.95;94378.50;5057138;28;20192;-36
2023/04/23 06:59:30;;;;;;;0.55;0.55;;;16.20;70.00;;;16.24;54.52;94375.63;5056352;28;20215;-37
2023/04/23 07:01:59;;;;;;;0.60;0.60;;;16.20;70.00;;;16.25;53.93;94372.72;5055531;28;20687;-39
2023/04/23 07:04:26;;;;;;;0.55;0.55;;;16.20;70.10;;;16.27;54.35;94375.13;5056383;28;20195;-37
2023/04/23 07:06:53;;;;;;;0.70;0.70;;;16.20;70.00;;;16.29;54.10;94376.47;5057315;28;20250;-37
2023/04/23 07:09:22;;;;;;;0.70;0.70;;;16.20;70.00;;;16.31;54.25;94381.56;5076213;28;20202;-33
2023/04/23 07:11:49;;;;;;;0.60;0.60;;;16.20;70.10;;;16.33;54.09;94379.44;5076119;28;20198;-36
2023/04/23 07:19:05;;;;;;;0.60;0.60;;;16.30;70.10;;;16.29;54.65;94380.97;5061374;23;20231;-37
2023/04/23 07:21:32;;;;;;;0.70;0.70;;;16.30;70.10;;;16.32;54.41;94383.97;5036167;28;20184;-34
2023/04/23 07:24:05;;;;;;;0.73;0.73;;;16.30;70.10;;;16.35;54.81;94384.53;5038415;28;20196;-37
2023/04/23 07:26:33;;;;;;;0.60;0.60;;;16.30;70.10;;;16.38;54.47;94382.19;5054422;28;20207;-40
2023/04/23 07:29:02;;;;;;;0.60;0.60;;;16.30;70.20;;;16.40;54.24;94384.59;5052706;28;20203;-37
2023/04/23 07:31:29;;;;;;;0.60;0.60;;;16.30;70.20;;;16.44;54.48;94388.34;5052891;28;20218;-35
2023/04/23 07:33:56;;;;;;;0.60;0.60;;;16.30;70.20;;;16.46;54.68;94386.28;5049218;28;20279;-37
2023/04/23 07:36:24;;;;;;;0.70;0.70;;;16.40;70.20;;;16.48;54.80;94384.19;5044433;28;20231;-37
2023/04/23 07:38:51;;;;;;;0.50;0.50;;;16.40;70.20;;;16.51;54.34;94388.22;5055752;28;20207;-40
2023/04/23 07:41:18;;;;;;;0.50;0.50;;;16.40;70.20;;;16.54;54.37;94388.53;5048748;28;20203;-40
2023/04/23 07:43:46;;;;;;;0.60;0.60;;;16.50;70.30;;;16.57;54.92;94392.53;5036927;28;20195;-40
2023/04/23 07:46:13;;;;;;;0.50;0.50;;;16.50;70.30;;;16.59;54.37;94403.69;5054681;28;20211;-39
2023/04/23 07:48:40;;;;;;;0.60;0.60;;;16.50;70.20;;;16.61;54.21;94406.88;5036147;28;20543;-40
2023/04/23 07:51:08;;;;;;;0.60;0.60;;;16.50;70.10;;;16.63;54.26;94404.81;5035663;28;20196;-32
2023/04/23 07:53:35;;;;;;;0.60;0.60;;;16.50;70.10;;;16.64;54.53;94406.41;5033904;28;20185;-34
2023/04/23 07:56:03;;;;;;;0.50;0.50;;;16.50;70.00;;;16.65;54.55;94408.03;5035302;28;20207;-34
2023/04/23 07:58:31;;;;;;;0.60;0.60;;;16.50;69.90;;;16.69;54.41;94413.63;5043367;28;20200;-35
2023/04/23 08:09:36;;;;;;;0.50;0.50;;;16.60;69.70;;;16.61;54.40;94407.69;5047376;22;20257;-37
2023/04/23 08:12:03;;;;;;;0.60;0.60;;;16.60;69.70;;;16.64;54.07;94407.19;5054856;28;20191;-37
2023/04/23 08:14:31;;;;;;;0.60;0.60;;;16.60;69.80;;;16.68;54.16;94407.53;5054722;28;20195;-36
2023/04/23 08:17:01;;;;;;;0.50;0.50;;;16.70;69.80;;;16.71;54.39;94401.75;5071075;28;20325;-37
2023/04/23 08:19:31;;;;;;;0.60;0.60;;;16.60;69.90;;;16.74;54.09;94409.19;5054658;28;20233;-34
2023/04/23 08:21:58;;;;;;;0.60;0.60;;;16.60;70.00;;;16.75;54.53;94402.84;5054801;28;20192;-31
2023/04/23 08:24:26;;;;;;;0.55;0.55;;;16.70;70.10;;;16.79;53.94;94396.03;5054426;28;20198;-36
2023/04/23 08:26:53;;;;;;;0.60;0.60;;;16.70;70.10;;;16.80;54.33;94396.84;5054132;28;20535;-37
2023/04/23 08:29:20;;;;;;;0.50;0.50;;;16.70;70.10;;;16.83;54.35;94404.28;5054602;28;20661;-32
2023/04/23 08:31:47;;;;;;;0.50;0.50;;;16.70;70.20;;;16.85;54.68;94407.50;5055033;28;20197;-36
2023/04/23 08:34:15;;;;;;;0.60;0.60;;;16.80;70.30;;;16.87;54.27;94408.06;5053106;28;20226;-33
2023/04/23 08:36:45;;;;;;;0.55;0.55;;;16.80;70.40;;;16.89;54.74;94405.16;5054884;28;20206;-31
2023/04/23 08:39:12;;;;;;;0.50;0.50;;;16.80;70.40;;;16.91;54.80;94403.88;5053758;28;20200;-34
2023/04/23 08:41:44;;;;;;;0.50;0.50;;;16.80;70.50;;;16.93;54.41;94404.47;5054594;28;20651;-39
2023/04/23 08:44:18;;;;;;;0.50;0.50;;;16.80;70.50;;;16.95;55.00;94406.88;5054347;28;20511;-35
2023/04/23 08:46:46;;;;;;;0.60;0.60;;;16.90;70.70;;;16.99;54.68;94401.88;5054826;28;20306;-33
2023/04/23 08:49:20;;;;;;;0.55;0.55;;;16.90;70.60;;;16.99;55.04;94402.69;5053944;28;20257;-32
2023/04/23 08:52:16;;;;;;;0.60;0.60;;;16.90;70.70;;;17.02;54.55;94406.72;5053802;28;20315;-38
2023/04/23 08:54:52;;;;;;;0.50;0.50;;;16.90;70.70;;;17.04;55.25;94402.75;5036466;28;20275;-30
2023/04/23 08:57:20;;;;;;;0.55;0.55;;;17.00;70.70;;;17.07;54.94;94399.59;5054799;28;20187;-33
2023/04/23 08:59:49;;;;;;;0.60;0.60;;;17.00;70.70;;;17.11;54.68;94410.53;5053724;28;20240;-33
2023/04/23 09:02:17;;;;;;;0.60;0.60;;;17.00;70.70;;;17.14;54.82;94404.75;5050187;28;20635;-33
2023/04/23 09:04:46;;;;;;;0.55;0.55;;;17.00;70.80;;;17.17;55.16;94408.75;5034156;28;20535;-34
2023/04/23 09:07:18;;;;;;;0.50;0.50;;;17.10;70.90;;;17.19;55.37;94404.00;5038641;28;20211;-37
2023/04/23 09:09:46;;;;;;;0.50;0.50;;;17.10;70.90;;;17.21;54.78;94400.06;5038131;28;20681;-33
2023/04/23 09:12:15;;;;;;;0.60;0.60;;;17.10;71.00;;;17.22;55.03;94392.91;5037703;28;20706;-33
2023/04/23 09:14:43;;;;;;;0.55;0.55;;;17.20;71.00;;;17.25;55.47;94393.22;5037289;28;20685;-32
2023/04/23 09:17:11;;;;;;;0.50;0.50;;;17.20;71.00;;;17.28;55.08;94400.69;5041468;28;20204;-33
2023/04/23 09:19:39;;;;;;;0.50;0.50;;;17.20;70.90;;;17.29;54.61;94404.13;5056648;28;20207;-35
2023/04/23 09:22:07;;;;;;;0.60;0.60;;;17.20;70.90;;;17.33;55.29;94399.13;5057603;28;20207;-38
2023/04/23 09:24:35;;;;;;;0.55;0.55;;;17.20;71.00;;;17.34;54.79;94396.22;5044862;28;20282;-32
2023/04/23 09:27:02;;;;;;;0.45;0.45;;;17.20;70.90;;;17.35;54.87;94391.75;5040970;28;20215;-34
2023/04/23 09:29:30;;;;;;;0.57;0.57;;;17.20;70.90;;;17.37;54.78;94398.41;5058027;28;20219;-32
2023/04/23 09:32:08;;;;;;;0.63;0.63;;;17.30;71.00;;;17.39;55.13;94398.16;5057915;28;20195;-34
2023/04/23 09:34:36;;;;;;;0.50;0.50;;;17.30;70.90;;;17.39;54.66;94398.16;5057938;28;20199;-37
2023/04/23 09:37:06;;;;;;;0.60;0.60;;;17.30;70.90;;;17.41;54.96;94390.75;5058100;28;20191;-37
2023/04/23 09:39:34;;;;;;;0.60;0.60;;;17.30;71.00;;;17.42;54.83;94389.72;5058152;28;20314;-32
2023/04/23 09:42:04;;;;;;;0.55;0.55;;;17.30;70.90;;;17.44;54.92;94377.81;5058682;28;20210;-34
2023/04/23 09:44:33;;;;;;;0.50;0.50;;;17.30;70.90;;;17.45;54.98;94378.59;5056524;28;20656;-33
2023/04/23 09:47:08;;;;;;;0.50;0.50;;;17.30;71.00;;;17.47;55.01;94388.94;5057876;28;20226;-40
2023/04/23 09:49:46;;;;;;;0.50;0.50;;;17.30;71.00;;;17.47;55.01;94381.00;5058561;28;20274;-34
2023/04/23 09:52:14;;;;;;;0.50;0.50;;;17.40;71.30;;;17.49;54.84;94386.84;5057700;28;20183;-36
2023/04/23 09:54:42;;;;;;;0.50;0.50;;;17.40;71.00;;;17.51;55.45;94388.22;5057965;28;20199;-35
2023/04/23 09:57:12;;;;;;;0.47;0.47;;;17.40;71.10;;;17.50;54.94;94383.94;5056411;28;20214;-35
2023/04/23 09:59:40;;;;;;;0.50;0.50;;;17.40;71.30;;;17.52;55.34;94386.38;5056597;28;20285;-34
2023/04/23 10:02:18;;;;;;;0.55;0.55;;;17.40;71.20;;;17.54;55.25;94381.59;5057198;28;20260;-35
2023/04/23 10:04:51;;;;;;;0.50;0.50;;;17.40;71.10;;;17.54;55.22;94384.25;5056058;28;20192;-38
2023/04/23 10:07:33;;;;;;;0.50;0.50;;;17.40;72.30;;;17.56;54.88;94382.97;5049957;28;20293;-37
2023/04/23 10:10:00;;;;;;;0.40;0.40;;;17.40;71.30;;;17.57;55.58;94392.53;5057202;28;20670;-35
2023/04/23 10:12:28;;;;;;;0.50;0.50;;;17.40;71.40;;;17.58;55.15;94388.81;5057045;28;20199;-38
2023/04/23 10:15:15;;;;;;;0.50;0.50;;;17.40;71.30;;;17.59;55.15;94382.47;5056729;28;20202;-34
2023/04/23 10:17:45;;;;;;;0.57;0.57;;;17.40;71.30;;;17.60;55.52;94378.78;5056920;28;20643;-38
2023/04/23 10:20:15;;;;;;;0.60;0.60;;;17.50;71.40;;;17.64;55.55;94378.25;5056182;28;20203;-37
2023/04/23 10:22:45;;;;;;;0.50;0.50;;;17.50;71.50;;;17.65;55.54;94378.03;5057298;28;20179;-33
2023/04/23 10:25:13;;;;;;;0.50;0.50;;;17.60;71.60;;;17.67;55.73;94377.78;5056130;28;20206;-36
2023/04/23 10:27:48;;;;;;;0.50;0.50;;;17.50;71.40;;;17.68;55.26;94369.56;5056383;28;20214;-33
2023/04/23 10:30:22;;;;;;;0.50;0.50;;;17.50;71.40;;;17.71;55.29;94369.09;5057176;28;20232;-36
2023/04/23 10:42:12;;;;;;;0.50;0.50;;;17.60;71.40;;;17.70;55.99;94364.81;5065228;22;20310;-33
2023/04/23 10:44:54;;;;;;;0.50;0.50;;;17.70;71.30;;;17.75;55.47;94356.91;5049588;28;20491;-36
2023/04/23 10:47:31;;;;;;;0.55;0.55;;;17.70;71.30;;;17.80;55.60;94361.47;4953914;28;20227;-34
2023/04/23 10:50:26;;;;;;;0.52;0.52;;;17.70;71.30;;;17.84;55.80;94357.25;4970031;23;20203;-35